Airfield :
LOGIN :

Register | Disclaimer

   EN    FR    IT 

 










Legend :    VFR   Marginal VFR   IFR   Intensive IFR   Very Intensive IFR
Visi :
Ceiling :
>= 8 km
>= 3000ft
5 to 8 km
1000 to 3000 ft
1500m to 5 km
500 to 1000 ft
800 to 1500m
200 to 500 ft
< 800m
< 200 ft
Symbols :   Thunderstorms  Fog  Heavy snow  Heavy precipitations  Wind > 20 kt
SIGMETs :     Misc.  Thunderstorms  Icing  Turbulence  Mountain Waves  Volcanic Ashes







- Airport Elevation : 138 ft
- IATA code : BIO


LEBB - Bilbao

CURRENT METAR :
  • 261230Z 31010KT 260V340 CAVOK 25/17 Q1012 NOSIG

EXPIRED METARs :
  • 261200Z 29013KT 260V320 CAVOK 25/17 Q1012 NOSIG
  • 261130Z 29010KT 250V330 CAVOK 26/18 Q1011 NOSIG
  • 261100Z 18006KT 120V240 CAVOK 30/18 Q1011 TEMPO 32015G25KT
  • 261030Z VRB01KT CAVOK 31/17 Q1011 TEMPO 32015G25KT
  • 261000Z 30003KT 210V350 CAVOK 29/17 Q1011 NOSIG

TAF TAF LEBB
Valid from the 26 at 12:00 until the 27 at 12:00 UTC


261100Z 2612/2712 27009KT 9999 FEW020 SCT045 TX32/2614Z TN15/2703Z
TEMPO 2612/2616 32015G25KT
PROB40
TEMPO 2613/2621 3000 SHRA TSRA SCT030CB
PROB30
TEMPO 2616/2619 33012KT 4500 BR BKN014
PROB40
TEMPO 2619/2708 3000 BR BKN012
No reported NOTAMs for that airfield.
2 SIGMETs reported for the Madrid FIR (LECM) :
 
Embedded thunderstorms
LECM SIGMET 12 VALID 261149/261400 LEVA
LECM MADRID FIR/UIR EMBD TS OBS AT 1149Z W OF LINE N4140 W00520 - N41 W00520 TOP FL420 STNR NC=
Embedded thunderstorms
LECM SIGMET 11 VALID 261100/261300 LEVA
LECM MADRID FIR/UIR EMBD TS OBS AT 1052Z WI N4150 W00930 - N4140 W00450 - N4320 W00440 - N4330 W010 TOP FL420 STNR NC=



MET'MAP, your aeronautical weather chart ! - Copyright ORBIFLY December 2007 - Disclaimer

ORBIFLY MET'MAP TEAM :

Programming & Development : Alexandra Zaïnal
Concept & Development : Baudouin d'Aumeries
Co-Development & Prog : Marc-Olivier Méhu
Technical & hardware support : Manuel Goepfert

Contact : metmap@orbifly.com




SOURCES & CREDITS :

   NOAA